KNQI/NQI METAR and TAF weather

Enter ICAO airport designator
Station Type Date Time Source
KNQI METAR 2019/02/22 22:56 UTC NOAA

KNQI 222256Z 05006KT 6SM HZ OVC015 22/17 A2982 RMK AO2 SLP096 T02170167 $


Station Type Date Time Source
KNQI Decoded METAR 2019/02/22 22:56 UTC NOAA

KINGSVILLE NAS, TX, United States (KNQI) 27-50N 097-81W 15M
Feb 22, 2019 - 05:56 PM EST / 2019.02.22 2256 UTC
Wind: from the NE (050 degrees) at 7 MPH (6 KT):0
Visibility: 6 mile(s):0
Sky conditions: overcast
Weather: haze
Temperature: 71.1 F (21.7 C)
Dew Point: 62.1 F (16.7 C)
Relative Humidity: 73%
Pressure (altimeter): 29.82 in. Hg (1009 hPa)
ob: KNQI 222256Z 05006KT 6SM HZ OVC015 22/17 A2982 RMK AO2 SLP096 T02170167
cycle: 23

Station Type Date Time Source
KNQI TAF 2019/02/22 23:59 UTC NOAA

TAF COR KNQI 2223/2323 VBR06KT 8000 HZ SCT008 OVC014 QNH2980INS
TEMPO 2300/2302 10008KT 4000 BR SCT005 OVC008
BECMG 2302/2304 12007KT 3200 BR VCSH SCT003 OVC005 QNH2981INS
TEMPO 2304/2309 16012G17KT 0800 -DZ FG OVC003
FM230900 19008KT 1600 BR VCSH OVC003 QNH2982INS
TEMPO 2309/2314 0400 -RADZ FG OVC002
FM231400 24008KT 4800 BR VCSH BKN005 OVC009 QNH2992INS
TEMPO 2314/2317 32015G23KT 2400 SHRA BR OVC004
BECMG 2317/2319 34017G24KT 9999 NSW SCT035 BKN250 QNH3000INS AUTOMATED SENSOR METWATCH 2302 TIL 2421 T19/2311Z T28/2320Z COR 2255 FN20042


Example: see airport list